Terminal Aerodrome Forecast
Issued by NWS

Home | Current Version | Previous Version | Text Only | Print | Product List | Glossary On
Versions: 1 2 3 4 5 6 7 8 9 10 11 12 13 14 15 16 17 18 19 20 21 22 23 24 25 26 27 28 29 30 31
000
FTUS43 KDLH 050305 AAB
TAFBRD
TAF AMD
KBRD 050305Z 0503/0524 15009KT P6SM -SHRA VCTS SCT030CB OVC100
     FM050600 15005KT 4SM BR FEW002 OVC035
      TEMPO 0509/0512 1/2SM FG OVC002
     FM051500 16010KT P6SM BKN040
     FM051800 17012G19KT P6SM VCSH OVC050=

USA.gov is the U.S. government's official web portal to all federal, state and local government web resources and services.